Portada
METAR-TAF:

METAR-TAF

Aeroports :

Mersa Matruh, Egipte

latitud: 31-20N, longitud: 027-13E, altitud: 25 m

Observació

L'informe es va fer fa 49 minuts, a les 16:00 UTC
Vent 4 kt del Est/Sud-Est
Temperatura 24°C
Humitat 38%
Pressió 1016 hPa
Visibilitat 10 km o més
sense núvols per sota de 1500 mi sense presència de cumulonimbus.

METAR: HEMM 271600Z 12004KT CAVOK 24/09 Q1016 NOSIG

Hora: 18:49 (16:49 UTC)

Pronòstic

L'informe es va fer fa 5 hores i 49 minuts, a les 11:00 UTC
Pronòstic vàlid del 27 a les 12 UTC al 28 a les 18 UTC
Vent 8 kt del Sud amb ràfegues de 18 kt
Visibilitat: 6000 m
sense núvols per sota de 1500 mi sense presència de cumulonimbus.
Temporalment
l' 17 a les 12 UTC al 27 a les 16 UTC
Visibilitat: 3000 m
sorra
Evolucionant progressivament
l' 27 a les 16 UTC al 27 a les 18 UTC
Visibilitat 10 km o més
sense núvols per sota de 1500 mi sense presència de cumulonimbus.

TAF: HEMM 271100Z 2712/2818 18008G18KT CAVOK 6000 NSC TEMPO 1712/2716 3000 SA BECMG 2716/2718 CAVOK

Observacions i pronòstics meteorològics de més de 4000 aeroports (METAR i TAF).

Les estacions disponibles són els punts grocs i vermells al mapa.

Posi el ratolí al punt desitjat per veure el nom de l'estació.

Feu clic per veure les observacions i els pronòstics meteorològics.

Per canviar el mapa: feu clic els botons verds amb una creu de color negre per apropar; al botó verd amb un guió per allunyar la imatge; o en les fletxes verdes per a mapes adjacents.


METAR-TAF: